Time;durP1;ratioP1;P1;durP2;ratioP2;P2;SDS_P1;SDS_P2;PMS_P1;PMS_P2;Temp;Humidity;BMP_temperature;BMP_pressure;BME280_temperature;BME280_humidity;BME280_pressure;Samples;Min_cycle;Max_cycle;Signal;HPM_P1;HPM_P2
2022/11/13 00:00:41;;;;;;;26.35;7.82;;;;;;;;;;4979980;28;20166;-83
2022/11/13 00:03:28;;;;;;;28.83;8.10;;;;;;;;;;4992195;28;20045;-83
2022/11/13 00:06:13;;;;;;;41.80;7.85;;;;;;;;;;4977980;28;20160;-84
2022/11/13 00:08:57;;;;;;;65.00;7.45;;;;;;;;;;4978868;28;20053;-83
2022/11/13 00:11:41;;;;;;;31.27;7.03;;;;;;;;;;4979888;28;20471;-84
2022/11/13 00:14:25;;;;;;;41.40;7.15;;;;;;;;;;4977634;28;20058;-82
2022/11/13 00:17:09;;;;;;;17.65;6.85;;;;;;;;;;4979636;28;20093;-84
2022/11/13 00:19:54;;;;;;;34.33;6.95;;;;;;;;;;4980403;28;20474;-83
2022/11/13 00:22:38;;;;;;;37.45;7.38;;;;;;;;;;4978397;28;20088;-82
2022/11/13 00:25:22;;;;;;;10.15;6.55;;;;;;;;;;4979322;28;20065;-84
2022/11/13 00:28:05;;;;;;;18.80;6.90;;;;;;;;;;4979732;28;20510;-84
2022/11/13 00:30:49;;;;;;;;;;;;;;;;;;4980089;28;20049;-83
2022/11/13 00:33:33;;;;;;;9.75;6.47;;;;;;;;;;4991895;28;19993;-82
2022/11/13 00:36:23;;;;;;;14.95;6.07;;;;;;;;;;4979276;28;20049;-83
2022/11/13 00:39:08;;;;;;;17.70;5.90;;;;;;;;;;4978632;28;20069;-83
2022/11/13 00:41:52;;;;;;;31.25;6.30;;;;;;;;;;4977900;28;20049;-84
2022/11/13 00:44:36;;;;;;;19.45;5.80;;;;;;;;;;4977032;28;20050;-83
2022/11/13 00:47:20;;;;;;;18.63;6.00;;;;;;;;;;4977186;28;20045;-83
2022/11/13 00:50:04;;;;;;;43.95;6.45;;;;;;;;;;4991697;28;20049;-83
2022/11/13 00:52:48;;;;;;;22.80;5.72;;;;;;;;;;4978654;28;20070;-83
2022/11/13 00:55:32;;;;;;;37.88;6.72;;;;;;;;;;4978636;28;20106;-84
2022/11/13 00:58:17;;;;;;;54.58;6.65;;;;;;;;;;4979093;28;20461;-83
2022/11/13 01:01:10;;;;;;;53.65;6.68;;;;;;;;;;4977214;28;20056;-83
2022/11/13 01:03:54;;;;;;;28.88;6.43;;;;;;;;;;4978582;28;20118;-83
2022/11/13 01:06:38;;;;;;;19.52;6.32;;;;;;;;;;4977665;28;20073;-83
2022/11/13 01:09:22;;;;;;;20.75;5.85;;;;;;;;;;4977339;28;20050;-84
2022/11/13 01:12:06;;;;;;;13.77;5.93;;;;;;;;;;4979387;28;20104;-85
2022/11/13 01:14:50;;;;;;;16.92;6.18;;;;;;;;;;4976982;28;20538;-84
2022/11/13 01:17:34;;;;;;;21.90;6.00;;;;;;;;;;4978989;28;20058;-84
2022/11/13 01:20:18;;;;;;;17.50;6.20;;;;;;;;;;4978843;28;20423;-82
2022/11/13 01:23:03;;;;;;;14.35;6.28;;;;;;;;;;4979046;28;20112;-85
2022/11/13 01:25:47;;;;;;;16.55;5.95;;;;;;;;;;4978002;28;20408;-83
2022/11/13 01:28:31;;;;;;;11.52;5.93;;;;;;;;;;4979318;28;20463;-84
2022/11/13 01:31:21;;;;;;;22.88;6.80;;;;;;;;;;4978358;28;20105;-84
2022/11/13 01:34:05;;;;;;;28.98;6.28;;;;;;;;;;4978027;28;20103;-83
2022/11/13 01:36:50;;;;;;;23.50;6.03;;;;;;;;;;4979029;28;20134;-85
2022/11/13 01:39:34;;;;;;;23.45;5.72;;;;;;;;;;4977763;28;20146;-84
2022/11/13 01:42:18;;;;;;;19.75;5.57;;;;;;;;;;4977813;28;20522;-84
2022/11/13 01:45:02;;;;;;;20.08;5.97;;;;;;;;;;4978368;28;20041;-84
2022/11/13 01:47:46;;;;;;;13.40;6.13;;;;;;;;;;4978663;28;20053;-85
2022/11/13 01:50:31;;;;;;;28.95;5.72;;;;;;;;;;4959802;29;20133;-83
2022/11/13 01:53:15;;;;;;;27.73;6.13;;;;;;;;;;4965232;29;20054;-84
2022/11/13 01:55:59;;;;;;;40.92;6.38;;;;;;;;;;4957634;29;20053;-83
2022/11/13 01:58:47;;;;;;;28.77;6.05;;;;;;;;;;4958859;29;20050;-82
2022/11/13 02:01:32;;;;;;;43.75;6.38;;;;;;;;;;4958876;29;20054;-83
2022/11/13 02:04:15;;;;;;;14.52;6.10;;;;;;;;;;4957601;29;20158;-84
2022/11/13 02:07:04;;;;;;;84.20;7.05;;;;;;;;;;4958577;29;20083;-83
2022/11/13 02:09:53;;;;;;;41.53;6.97;;;;;;;;;;4958767;29;20062;-84
2022/11/13 02:12:41;;;;;;;17.33;6.28;;;;;;;;;;4958870;29;20151;-83
2022/11/13 02:15:30;;;;;;;51.67;7.60;;;;;;;;;;4957134;29;20090;-84
2022/11/13 02:18:17;;;;;;;57.25;6.80;;;;;;;;;;4957734;29;20054;-84
2022/11/13 02:21:09;;;;;;;32.00;7.00;;;;;;;;;;4971828;28;20110;-83
2022/11/13 02:24:00;;;;;;;26.35;6.50;;;;;;;;;;4960768;29;20046;-82
2022/11/13 02:26:44;;;;;;;20.00;6.57;;;;;;;;;;4962129;29;20070;-84
2022/11/13 02:29:28;;;;;;;26.25;6.32;;;;;;;;;;4961911;29;20106;-85
2022/11/13 02:32:12;;;;;;;31.25;6.43;;;;;;;;;;4961804;29;20054;-83
2022/11/13 02:34:56;;;;;;;12.90;6.05;;;;;;;;;;4961423;29;20046;-83
2022/11/13 02:37:41;;;;;;;16.27;6.40;;;;;;;;;;4961934;29;20680;-83
2022/11/13 02:40:26;;;;;;;20.52;6.00;;;;;;;;;;4960636;29;20137;-84
2022/11/13 02:43:10;;;;;;;30.52;6.05;;;;;;;;;;4962262;29;20046;-82
2022/11/13 02:45:57;;;;;;;38.63;6.10;;;;;;;;;;4961222;29;20050;-83
2022/11/13 02:48:41;;;;;;;18.30;5.80;;;;;;;;;;4962307;29;20054;-84
2022/11/13 02:51:25;;;;;;;51.40;6.20;;;;;;;;;;4962299;29;20173;-84
2022/11/13 02:54:09;;;;;;;52.33;5.85;;;;;;;;;;4961319;29;20054;-84
2022/11/13 02:56:53;;;;;;;10.90;5.75;;;;;;;;;;4961707;29;20077;-84
2022/11/13 02:59:37;;;;;;;;;;;;;;;;;;4961146;29;20058;-83
2022/11/13 03:02:21;;;;;;;41.45;5.32;;;;;;;;;;4960837;29;20453;-83
2022/11/13 03:05:05;;;;;;;;;;;;;;;;;;4962021;29;20131;-84
2022/11/13 03:07:48;;;;;;;10.23;4.78;;;;;;;;;;4961386;29;19921;-83
2022/11/13 03:10:32;;;;;;;29.27;4.78;;;;;;;;;;4961115;29;20054;-83
2022/11/13 03:13:17;;;;;;;18.33;4.72;;;;;;;;;;4959255;29;20076;-84
2022/11/13 03:16:19;;;;;;;27.55;5.30;;;;;;;;;;4960568;29;20078;-81
2022/11/13 03:19:03;;;;;;;23.38;5.18;;;;;;;;;;4974285;28;20168;-84
2022/11/13 03:21:46;;;;;;;22.05;5.05;;;;;;;;;;4960133;29;20102;-83
2022/11/13 03:24:31;;;;;;;24.08;5.45;;;;;;;;;;4960850;29;20397;-84
2022/11/13 03:27:14;;;;;;;;;;;;;;;;;;4962115;29;20058;-84
2022/11/13 03:29:58;;;;;;;7.32;4.03;;;;;;;;;;4960706;29;19994;-85
2022/11/13 03:32:42;;;;;;;31.77;4.82;;;;;;;;;;4960834;28;20085;-84
2022/11/13 03:35:28;;;;;;;10.90;4.30;;;;;;;;;;4958548;29;20463;-84
2022/11/13 03:38:11;;;;;;;15.65;4.50;;;;;;;;;;4959328;29;20089;-83
2022/11/13 03:40:56;;;;;;;20.60;4.78;;;;;;;;;;4960219;29;20075;-83
2022/11/13 03:43:41;;;;;;;19.90;4.85;;;;;;;;;;4960792;29;20099;-84
2022/11/13 03:46:24;;;;;;;12.75;4.30;;;;;;;;;;4960874;29;20123;-83
2022/11/13 03:49:09;;;;;;;57.80;5.15;;;;;;;;;;4960875;29;20107;-82
2022/11/13 03:51:52;;;;;;;49.13;4.75;;;;;;;;;;4960843;29;20053;-83
2022/11/13 03:54:37;;;;;;;53.55;5.45;;;;;;;;;;4959742;29;20094;-83
2022/11/13 03:57:20;;;;;;;;;;;;;;;;;;4961830;29;20050;-83
2022/11/13 04:00:05;;;;;;;22.15;4.82;;;;;;;;;;4959783;29;20344;-84
2022/11/13 04:02:49;;;;;;;30.42;4.75;;;;;;;;;;4961253;29;20058;-84
2022/11/13 04:05:33;;;;;;;34.75;4.93;;;;;;;;;;4960362;29;20077;-84
2022/11/13 04:08:17;;;;;;;17.95;4.35;;;;;;;;;;4960908;29;20057;-84
2022/11/13 04:11:06;;;;;;;33.72;5.03;;;;;;;;;;4963413;29;20053;-84
2022/11/13 04:13:50;;;;;;;10.07;4.53;;;;;;;;;;4957941;29;20107;-82
2022/11/13 04:16:34;;;;;;;22.02;4.70;;;;;;;;;;4959550;29;20523;-83
2022/11/13 04:19:18;;;;;;;22.45;4.60;;;;;;;;;;4972702;28;20049;-84
2022/11/13 04:22:02;;;;;;;13.27;4.38;;;;;;;;;;4958535;28;20058;-85
2022/11/13 04:24:46;;;;;;;26.83;4.70;;;;;;;;;;4959316;29;20471;-83
2022/11/13 04:27:30;;;;;;;52.38;5.10;;;;;;;;;;4960100;29;20110;-83
2022/11/13 04:30:14;;;;;;;52.88;4.95;;;;;;;;;;4959530;29;20693;-83
2022/11/13 04:32:58;;;;;;;23.73;4.75;;;;;;;;;;4959818;29;20179;-83
2022/11/13 04:35:44;;;;;;;43.83;4.88;;;;;;;;;;4958730;29;20053;-82
2022/11/13 04:38:29;;;;;;;18.08;5.07;;;;;;;;;;4958692;29;20109;-84
2022/11/13 04:44:15;;;;;;;18.08;4.90;;;;;;;;;;4958932;28;20050;-83
2022/11/13 04:46:59;;;;;;;13.32;4.68;;;;;;;;;;4959842;29;20582;-82
2022/11/13 04:49:43;;;;;;;23.55;4.63;;;;;;;;;;4971869;28;20053;-84
2022/11/13 04:52:27;;;;;;;22.73;4.43;;;;;;;;;;4959066;29;20054;-84
2022/11/13 04:55:12;;;;;;;27.45;4.00;;;;;;;;;;4958493;29;20515;-83
2022/11/13 04:57:56;;;;;;;20.42;4.10;;;;;;;;;;4959343;29;20138;-84
2022/11/13 05:00:40;;;;;;;10.48;3.90;;;;;;;;;;4960233;29;20416;-82
2022/11/13 05:03:24;;;;;;;13.40;4.10;;;;;;;;;;4958874;29;20098;-83
2022/11/13 05:06:09;;;;;;;23.75;3.75;;;;;;;;;;4971720;28;20058;-84
2022/11/13 05:08:53;;;;;;;6.10;3.83;;;;;;;;;;4971832;28;20419;-82
2022/11/13 05:11:40;;;;;;;19.00;4.15;;;;;;;;;;4957823;29;20059;-83
2022/11/13 05:14:24;;;;;;;14.30;3.72;;;;;;;;;;4957180;29;20050;-83
2022/11/13 05:17:10;;;;;;;13.30;3.97;;;;;;;;;;4959274;29;20117;-84
2022/11/13 05:19:54;;;;;;;18.10;3.97;;;;;;;;;;4958871;29;20599;-84
2022/11/13 05:22:38;;;;;;;24.08;3.80;;;;;;;;;;5039727;23;20079;-86
2022/11/13 05:25:22;;;;;;;22.23;4.30;;;;;;;;;;5042686;28;20351;-85
2022/11/13 05:28:06;;;;;;;23.90;4.05;;;;;;;;;;5043923;28;20048;-85
2022/11/13 05:30:50;;;;;;;10.68;3.75;;;;;;;;;;5044208;28;20044;-84
2022/11/13 05:33:35;;;;;;;7.03;3.55;;;;;;;;;;5024220;28;20118;-85
2022/11/13 05:36:20;;;;;;;17.40;4.00;;;;;;;;;;5023743;28;20072;-86
2022/11/13 05:39:05;;;;;;;57.53;4.18;;;;;;;;;;5024325;28;20053;-85
2022/11/13 05:41:49;;;;;;;40.60;4.40;;;;;;;;;;5024158;28;20394;-85
2022/11/13 05:44:33;;;;;;;24.77;3.90;;;;;;;;;;5022741;28;20092;-86
2022/11/13 05:47:17;;;;;;;121.60;5.80;;;;;;;;;;5023532;28;20056;-83
2022/11/13 05:50:01;;;;;;;94.00;4.72;;;;;;;;;;5023606;28;20108;-85
2022/11/13 05:52:45;;;;;;;130.75;5.60;;;;;;;;;;5023066;28;20048;-86
2022/11/13 05:55:32;;;;;;;20.25;4.20;;;;;;;;;;5022488;28;20092;-85
2022/11/13 05:58:16;;;;;;;37.47;3.78;;;;;;;;;;5011979;28;20536;-83
2022/11/13 06:01:25;;;;;;;34.00;4.15;;;;;;;;;;5026452;28;20112;-84
2022/11/13 06:04:09;;;;;;;50.65;4.47;;;;;;;;;;5025599;28;20124;-85
2022/11/13 06:06:53;;;;;;;56.35;4.75;;;;;;;;;;5025918;28;20068;-85
2022/11/13 06:09:38;;;;;;;13.38;3.90;;;;;;;;;;5026307;28;20052;-86
2022/11/13 06:12:22;;;;;;;25.98;4.85;;;;;;;;;;5027119;28;20072;-84
2022/11/13 06:15:07;;;;;;;44.63;4.60;;;;;;;;;;5010889;28;20048;-85
2022/11/13 06:17:51;;;;;;;7.00;3.42;;;;;;;;;;5028404;28;20084;-85
2022/11/13 06:20:35;;;;;;;65.60;4.60;;;;;;;;;;5027064;28;20045;-85
2022/11/13 06:23:20;;;;;;;32.15;4.05;;;;;;;;;;5011818;28;20410;-85
2022/11/13 06:26:13;;;;;;;23.13;4.20;;;;;;;;;;5011914;28;20052;-83
2022/11/13 06:28:58;;;;;;;26.08;4.18;;;;;;;;;;5012937;28;20458;-85
2022/11/13 06:31:42;;;;;;;23.92;4.78;;;;;;;;;;5027118;28;20578;-85
2022/11/13 06:34:29;;;;;;;25.15;5.32;;;;;;;;;;5028446;28;20113;-87
2022/11/13 06:37:14;;;;;;;17.65;5.00;;;;;;;;;;5029468;28;20073;-86
2022/11/13 06:39:58;;;;;;;22.98;4.43;;;;;;;;;;5028767;28;20092;-84
2022/11/13 06:42:42;;;;;;;28.98;4.70;;;;;;;;;;5030125;28;20049;-85
2022/11/13 06:45:26;;;;;;;81.53;4.50;;;;;;;;;;5029653;28;20048;-85
2022/11/13 06:48:10;;;;;;;22.48;5.35;;;;;;;;;;5031118;28;20044;-83
2022/11/13 06:50:54;;;;;;;32.05;4.88;;;;;;;;;;5031098;28;20056;-84
2022/11/13 06:53:38;;;;;;;15.35;5.22;;;;;;;;;;5029150;28;20044;-84
2022/11/13 06:56:23;;;;;;;32.75;4.93;;;;;;;;;;5029271;28;20418;-84
2022/11/13 06:59:08;;;;;;;25.58;4.55;;;;;;;;;;5028306;28;20056;-85
2022/11/13 07:01:52;;;;;;;34.08;4.57;;;;;;;;;;5027048;28;20053;-83
2022/11/13 07:04:36;;;;;;;61.17;5.20;;;;;;;;;;5026781;28;20045;-85
2022/11/13 07:07:20;;;;;;;63.17;4.55;;;;;;;;;;5025650;28;20053;-85
2022/11/13 07:10:04;;;;;;;56.65;4.65;;;;;;;;;;5010458;28;20052;-83
2022/11/13 07:12:49;;;;;;;63.63;5.28;;;;;;;;;;5025127;28;20501;-83
2022/11/13 07:15:37;;;;;;;19.00;4.78;;;;;;;;;;5024908;28;20061;-82
2022/11/13 07:18:21;;;;;;;43.67;4.43;;;;;;;;;;5013043;28;20048;-84
2022/11/13 07:21:08;;;;;;;32.45;4.18;;;;;;;;;;5026292;28;20048;-84
2022/11/13 07:23:52;;;;;;;35.25;4.50;;;;;;;;;;5026265;28;20101;-83
2022/11/13 07:26:36;;;;;;;21.52;4.13;;;;;;;;;;5023908;28;20076;-83
2022/11/13 07:29:19;;;;;;;14.30;3.80;;;;;;;;;;5024405;28;20104;-84
2022/11/13 07:32:04;;;;;;;4.63;3.22;;;;;;;;;;5021293;28;20052;-83
2022/11/13 07:34:48;;;;;;;15.60;3.50;;;;;;;;;;5023675;28;20053;-84
2022/11/13 07:37:32;;;;;;;48.83;4.22;;;;;;;;;;5025698;28;20080;-83
2022/11/13 07:40:16;;;;;;;53.10;5.93;;;;;;;;;;5025117;28;20418;-84
2022/11/13 07:43:01;;;;;;;19.45;3.80;;;;;;;;;;5025114;28;20072;-84
2022/11/13 07:45:45;;;;;;;80.85;5.10;;;;;;;;;;5024062;28;20103;-85
2022/11/13 07:48:30;;;;;;;32.08;3.90;;;;;;;;;;5024929;28;20088;-84
2022/11/13 07:51:13;;;;;;;45.55;4.50;;;;;;;;;;5024902;28;20125;-85
2022/11/13 07:53:57;;;;;;;69.38;5.15;;;;;;;;;;5025224;28;20056;-83
2022/11/13 07:56:41;;;;;;;43.55;5.10;;;;;;;;;;5009514;28;20052;-86
2022/11/13 07:59:25;;;;;;;44.03;4.50;;;;;;;;;;5024941;28;20052;-85
2022/11/13 08:02:14;;;;;;;19.17;4.53;;;;;;;;;;5024751;28;20060;-84
2022/11/13 08:04:58;;;;;;;23.02;4.05;;;;;;;;;;5009612;28;20052;-85
2022/11/13 08:07:42;;;;;;;9.15;3.58;;;;;;;;;;5008544;28;20052;-84
2022/11/13 08:10:26;;;;;;;13.38;3.67;;;;;;;;;;5025107;28;20049;-84
2022/11/13 08:13:10;;;;;;;20.20;3.80;;;;;;;;;;5024007;28;20126;-84
2022/11/13 08:15:58;;;;;;;6.82;3.33;;;;;;;;;;5023764;28;20494;-84
2022/11/13 08:18:42;;;;;;;11.02;3.22;;;;;;;;;;5009630;28;20552;-84
2022/11/13 08:21:26;;;;;;;36.97;3.55;;;;;;;;;;5025913;28;20051;-84
2022/11/13 08:24:10;;;;;;;9.85;3.85;;;;;;;;;;5025006;28;20049;-84
2022/11/13 08:26:54;;;;;;;6.93;3.97;;;;;;;;;;5010642;28;20104;-85
2022/11/13 08:29:38;;;;;;;21.27;4.40;;;;;;;;;;5024650;28;20057;-84
2022/11/13 08:32:22;;;;;;;16.35;4.43;;;;;;;;;;5024824;28;20048;-85
2022/11/13 08:35:06;;;;;;;5.53;3.70;;;;;;;;;;5024348;28;20104;-83
2022/11/13 08:37:50;;;;;;;8.85;4.32;;;;;;;;;;5024558;28;20057;-83
2022/11/13 08:40:35;;;;;;;6.95;4.53;;;;;;;;;;5023574;28;20072;-85
2022/11/13 08:43:18;;;;;;;;;;;;;;;;;;5024645;28;20137;-81
2022/11/13 08:46:02;;;;;;;4.93;3.67;;;;;;;;;;5022355;28;19967;-84
2022/11/13 08:48:46;;;;;;;12.02;3.90;;;;;;;;;;5023925;28;20044;-84
2022/11/13 08:51:31;;;;;;;7.22;4.07;;;;;;;;;;5023675;28;20084;-83
2022/11/13 08:54:15;;;;;;;5.65;3.58;;;;;;;;;;5022635;28;20414;-84
2022/11/13 08:57:00;;;;;;;9.40;3.95;;;;;;;;;;5023538;28;20053;-84
2022/11/13 08:59:44;;;;;;;5.82;4.00;;;;;;;;;;5024485;28;20053;-85
2022/11/13 09:02:27;;;;;;;9.57;4.70;;;;;;;;;;5023566;28;20060;-85
2022/11/13 09:05:11;;;;;;;12.25;4.65;;;;;;;;;;5023854;28;20057;-85
2022/11/13 09:08:00;;;;;;;11.00;4.55;;;;;;;;;;5024228;28;20104;-83
2022/11/13 09:10:44;;;;;;;10.95;5.40;;;;;;;;;;5024313;28;20073;-85
2022/11/13 09:13:30;;;;;;;9.65;5.57;;;;;;;;;;5008127;28;20056;-84
2022/11/13 09:16:14;;;;;;;27.55;6.03;;;;;;;;;;5007639;28;20133;-84
2022/11/13 09:18:58;;;;;;;11.93;6.10;;;;;;;;;;5022990;28;20049;-84
2022/11/13 09:21:42;;;;;;;10.93;6.00;;;;;;;;;;5008173;28;20052;-84
2022/11/13 09:24:26;;;;;;;26.00;5.43;;;;;;;;;;5008321;28;20116;-85
2022/11/13 09:27:10;;;;;;;15.55;5.60;;;;;;;;;;5023338;28;20052;-84
2022/11/13 09:29:54;;;;;;;10.95;7.05;;;;;;;;;;5023801;28;20413;-84
2022/11/13 09:32:38;;;;;;;10.52;5.50;;;;;;;;;;5027481;28;20057;-84
2022/11/13 09:35:33;;;;;;;45.45;5.88;;;;;;;;;;5027153;28;20049;-84
2022/11/13 09:38:17;;;;;;;23.77;6.20;;;;;;;;;;5012362;28;20068;-84
2022/11/13 09:41:11;;;;;;;18.60;5.03;;;;;;;;;;5012151;28;20067;-84
2022/11/13 09:44:00;;;;;;;10.70;5.03;;;;;;;;;;5025792;28;20426;-86
2022/11/13 09:46:58;;;;;;;90.53;6.10;;;;;;;;;;5027129;28;20051;-85
2022/11/13 09:49:47;;;;;;;18.80;5.20;;;;;;;;;;5026893;28;20041;-84
2022/11/13 09:52:36;;;;;;;21.33;5.45;;;;;;;;;;5026769;28;20071;-85
2022/11/13 09:55:33;;;;;;;61.22;6.07;;;;;;;;;;5026767;28;20049;-85
2022/11/13 09:58:28;;;;;;;14.43;5.32;;;;;;;;;;5012859;28;20108;-84
2022/11/13 10:01:27;;;;;;;8.25;5.75;;;;;;;;;;5027409;28;20504;-83
2022/11/13 10:04:14;;;;;;;11.57;5.32;;;;;;;;;;5026355;28;20056;-84
2022/11/13 10:07:17;;;;;;;14.07;6.03;;;;;;;;;;5027491;28;20076;-85
2022/11/13 10:10:22;;;;;;;16.17;5.72;;;;;;;;;;5027323;28;20153;-84
2022/11/13 10:13:13;;;;;;;34.95;5.60;;;;;;;;;;5011081;28;20530;-85
2022/11/13 10:16:34;;;;;;;16.98;6.88;;;;;;;;;;5026086;28;20526;-84
2022/11/13 10:19:22;;;;;;;19.00;6.22;;;;;;;;;;5012431;28;20080;-84
2022/11/13 10:22:22;;;;;;;13.65;5.68;;;;;;;;;;5011753;28;20053;-84
2022/11/13 10:25:10;;;;;;;8.05;5.95;;;;;;;;;;5025725;28;20510;-85
2022/11/13 10:27:59;;;;;;;9.27;5.97;;;;;;;;;;5023832;28;20427;-82
2022/11/13 10:30:44;;;;;;;10.60;6.63;;;;;;;;;;5022872;28;20052;-83
2022/11/13 10:33:28;;;;;;;8.20;6.00;;;;;;;;;;5009299;28;20069;-84
2022/11/13 10:36:36;;;;;;;9.55;6.28;;;;;;;;;;5022967;28;20056;-82
2022/11/13 10:39:20;;;;;;;10.38;6.65;;;;;;;;;;5021923;28;20059;-82
2022/11/13 10:42:18;;;;;;;10.52;6.32;;;;;;;;;;5023026;28;20057;-81
2022/11/13 10:45:02;;;;;;;10.00;6.07;;;;;;;;;;5021941;28;20041;-82
2022/11/13 10:47:49;;;;;;;9.05;6.30;;;;;;;;;;5024491;28;20052;-82
2022/11/13 10:50:34;;;;;;;7.47;5.55;;;;;;;;;;5022930;28;20053;-83
2022/11/13 10:53:19;;;;;;;9.38;5.38;;;;;;;;;;5021012;28;20053;-81
2022/11/13 10:56:30;;;;;;;9.43;6.50;;;;;;;;;;5020289;28;20411;-81
2022/11/13 10:59:16;;;;;;;8.60;5.95;;;;;;;;;;5021894;28;20129;-84
2022/11/13 11:02:15;;;;;;;6.28;4.72;;;;;;;;;;5021220;28;20087;-84
2022/11/13 11:05:03;;;;;;;7.85;4.95;;;;;;;;;;5002633;28;20041;-82
2022/11/13 11:07:48;;;;;;;6.38;4.72;;;;;;;;;;5020845;28;20474;-82
2022/11/13 11:10:35;;;;;;;8.02;5.10;;;;;;;;;;5021940;28;20112;-83
2022/11/13 11:13:23;;;;;;;6.95;5.32;;;;;;;;;;5019809;28;20072;-82
2022/11/13 11:16:10;;;;;;;6.90;5.10;;;;;;;;;;5024588;28;20048;-83
2022/11/13 11:19:00;;;;;;;7.25;5.43;;;;;;;;;;5027083;28;20481;-83
2022/11/13 11:21:47;;;;;;;7.40;5.20;;;;;;;;;;5026725;28;20049;-81
2022/11/13 11:24:39;;;;;;;8.02;6.00;;;;;;;;;;5014960;28;20136;-83
2022/11/13 11:27:45;;;;;;;7.10;5.22;;;;;;;;;;5000112;28;20108;-83
2022/11/13 11:30:38;;;;;;;8.88;5.75;;;;;;;;;;5014205;28;20052;-83
2022/11/13 11:34:00;;;;;;;10.07;6.38;;;;;;;;;;4999155;28;20072;-84
2022/11/13 11:36:53;;;;;;;7.78;5.95;;;;;;;;;;4979949;28;20069;-84
2022/11/13 11:40:02;;;;;;;8.18;5.93;;;;;;;;;;5018080;28;20045;-83
2022/11/13 11:42:55;;;;;;;10.63;7.10;;;;;;;;;;5019235;28;20095;-83
2022/11/13 11:45:42;;;;;;;8.88;5.18;;;;;;;;;;5017894;28;20125;-83
2022/11/13 11:48:29;;;;;;;9.10;6.40;;;;;;;;;;5017203;28;20045;-82
2022/11/13 11:51:20;;;;;;;7.93;5.82;;;;;;;;;;5018501;28;20048;-83
2022/11/13 11:54:18;;;;;;;7.43;5.15;;;;;;;;;;5014837;28;20073;-83
2022/11/13 11:57:18;;;;;;;10.85;6.00;;;;;;;;;;5018426;28;20052;-84
2022/11/13 12:00:26;;;;;;;10.25;6.72;;;;;;;;;;5018276;28;20076;-81
2022/11/13 12:03:28;;;;;;;9.48;6.32;;;;;;;;;;5014829;28;20100;-82
2022/11/13 12:06:24;;;;;;;7.10;5.97;;;;;;;;;;5016167;28;20571;-83
2022/11/13 12:09:19;;;;;;;6.65;5.00;;;;;;;;;;5016635;28;20084;-83
2022/11/13 12:12:24;;;;;;;6.88;5.05;;;;;;;;;;5002218;28;20558;-83
2022/11/13 12:15:33;;;;;;;7.88;5.30;;;;;;;;;;5000005;28;20414;-83
2022/11/13 12:18:35;;;;;;;7.57;5.38;;;;;;;;;;5003176;28;20047;-84
2022/11/13 12:21:45;;;;;;;5.93;4.40;;;;;;;;;;5018808;28;20064;-83
2022/11/13 12:24:55;;;;;;;5.95;4.22;;;;;;;;;;5018299;28;20048;-83
2022/11/13 12:28:02;;;;;;;5.82;4.43;;;;;;;;;;5004847;28;20580;-84
2022/11/13 12:31:16;;;;;;;7.30;5.00;;;;;;;;;;5019352;28;20149;-83
2022/11/13 12:34:27;;;;;;;8.82;5.15;;;;;;;;;;5019088;28;20087;-84
2022/11/13 12:37:26;;;;;;;6.40;4.63;;;;;;;;;;5021661;28;20052;-84
2022/11/13 12:40:19;;;;;;;8.02;5.25;;;;;;;;;;5019355;28;20069;-83
2022/11/13 12:43:31;;;;;;;6.10;4.50;;;;;;;;;;5014372;28;20048;-83
2022/11/13 12:46:16;;;;;;;5.70;4.28;;;;;;;;;;4998894;28;20135;-83
2022/11/13 12:49:00;;;;;;;6.30;4.82;;;;;;;;;;4999160;28;20040;-82
2022/11/13 12:51:54;;;;;;;6.10;4.57;;;;;;;;;;5014847;28;20056;-83
2022/11/13 12:54:38;;;;;;;;;;;;;;;;;;5014617;28;20075;-81
2022/11/13 12:57:24;;;;;;;6.68;4.45;;;;;;;;;;5014249;28;19919;-84
2022/11/13 13:00:24;;;;;;;5.65;4.00;;;;;;;;;;5014167;28;20069;-83
2022/11/13 13:03:14;;;;;;;7.60;4.57;;;;;;;;;;5014149;28;20147;-83
2022/11/13 13:06:19;;;;;;;9.57;4.63;;;;;;;;;;5013736;28;20087;-83
2022/11/13 13:09:41;;;;;;;5.78;4.15;;;;;;;;;;5014424;28;20048;-83
2022/11/13 13:13:12;;;;;;;5.45;4.10;;;;;;;;;;5014086;28;20176;-83
2022/11/13 13:16:01;;;;;;;7.25;4.60;;;;;;;;;;4998098;28;20156;-83
2022/11/13 13:18:46;;;;;;;6.15;4.35;;;;;;;;;;5013807;28;20069;-83
2022/11/13 13:21:39;;;;;;;6.85;4.30;;;;;;;;;;5013552;28;20525;-83
2022/11/13 13:24:36;;;;;;;8.48;5.10;;;;;;;;;;5012904;28;20077;-82
2022/11/13 13:27:28;;;;;;;8.43;5.13;;;;;;;;;;4998680;28;20406;-83
2022/11/13 13:30:24;;;;;;;7.32;4.72;;;;;;;;;;4998478;28;20468;-84
2022/11/13 13:33:23;;;;;;;7.95;4.97;;;;;;;;;;4998790;28;20084;-83
2022/11/13 13:36:44;;;;;;;8.05;5.18;;;;;;;;;;5013504;28;20145;-84
2022/11/13 13:39:37;;;;;;;9.75;5.10;;;;;;;;;;4999409;28;20068;-84
2022/11/13 13:42:27;;;;;;;8.00;5.40;;;;;;;;;;4998729;28;20089;-84
2022/11/13 13:45:23;;;;;;;8.65;5.65;;;;;;;;;;5012830;28;20540;-83
2022/11/13 13:48:11;;;;;;;9.13;5.30;;;;;;;;;;5013720;28;20061;-83
2022/11/13 13:50:56;;;;;;;8.85;5.30;;;;;;;;;;5013292;28;20567;-83
2022/11/13 13:53:41;;;;;;;10.75;5.68;;;;;;;;;;5013254;28;20510;-83
2022/11/13 13:56:25;;;;;;;8.02;5.40;;;;;;;;;;5013617;28;20628;-82
2022/11/13 13:59:29;;;;;;;9.13;5.40;;;;;;;;;;4998478;28;20171;-83
2022/11/13 14:02:16;;;;;;;8.38;5.63;;;;;;;;;;5012701;28;20045;-83
2022/11/13 14:05:00;;;;;;;8.23;5.75;;;;;;;;;;5012207;28;20040;-82
2022/11/13 14:07:45;;;;;;;7.68;5.50;;;;;;;;;;5013049;28;20048;-83
2022/11/13 14:10:29;;;;;;;9.32;5.55;;;;;;;;;;5012403;28;20088;-81
2022/11/13 14:13:20;;;;;;;7.53;5.18;;;;;;;;;;5011470;28;20061;-82
2022/11/13 14:16:06;;;;;;;8.30;5.13;;;;;;;;;;5012429;28;20052;-82
2022/11/13 14:18:50;;;;;;;7.53;4.88;;;;;;;;;;5016591;28;20049;-82
2022/11/13 14:21:34;;;;;;;7.55;5.35;;;;;;;;;;5016195;28;20049;-83
2022/11/13 14:24:26;;;;;;;9.70;5.47;;;;;;;;;;5016223;28;20541;-83
2022/11/13 14:27:19;;;;;;;7.57;5.25;;;;;;;;;;5016988;28;20049;-83
2022/11/13 14:30:08;;;;;;;6.93;5.00;;;;;;;;;;5016991;28;20104;-82
2022/11/13 14:32:53;;;;;;;6.13;4.60;;;;;;;;;;5017042;28;20557;-83
2022/11/13 14:35:39;;;;;;;7.78;5.28;;;;;;;;;;5016286;28;20045;-83
2022/11/13 14:38:30;;;;;;;7.22;5.05;;;;;;;;;;5017712;28;20060;-83
2022/11/13 14:41:22;;;;;;;7.20;5.07;;;;;;;;;;5017739;28;20084;-83
2022/11/13 14:44:10;;;;;;;7.93;4.80;;;;;;;;;;5017148;28;20095;-83
2022/11/13 14:47:18;;;;;;;7.93;5.20;;;;;;;;;;5019304;28;20045;-84
2022/11/13 14:50:34;;;;;;;6.82;5.05;;;;;;;;;;5017484;28;20052;-84
2022/11/13 14:53:32;;;;;;;6.35;4.68;;;;;;;;;;5016687;28;20073;-84
2022/11/13 14:56:16;;;;;;;5.50;4.20;;;;;;;;;;5001201;28;20522;-84
2022/11/13 14:59:13;;;;;;;5.80;4.07;;;;;;;;;;5001509;28;20133;-84
2022/11/13 15:01:57;;;;;;;6.80;4.13;;;;;;;;;;5016194;28;20095;-84
2022/11/13 15:04:42;;;;;;;5.65;3.85;;;;;;;;;;5015156;28;20044;-84
2022/11/13 15:07:32;;;;;;;6.00;3.88;;;;;;;;;;5015867;28;20052;-84
2022/11/13 15:10:20;;;;;;;5.50;4.20;;;;;;;;;;5016303;28;20053;-83
2022/11/13 15:13:15;;;;;;;5.80;3.88;;;;;;;;;;5001160;28;20095;-81
2022/11/13 15:15:59;;;;;;;6.25;4.30;;;;;;;;;;5016865;28;20116;-84
2022/11/13 15:18:49;;;;;;;5.28;3.70;;;;;;;;;;5001852;28;20128;-83
2022/11/13 15:21:33;;;;;;;6.35;3.65;;;;;;;;;;5018960;28;20476;-82
2022/11/13 15:24:17;;;;;;;;;;;;;;;;;;5018994;28;20435;-86
2022/11/13 15:27:01;;;;;;;5.18;3.42;;;;;;;;;;5018671;28;19959;-82
2022/11/13 15:29:45;;;;;;;7.13;3.88;;;;;;;;;;5018310;28;20052;-83
2022/11/13 15:32:29;;;;;;;7.00;3.63;;;;;;;;;;5018674;28;20442;-82
2022/11/13 15:35:16;;;;;;;6.57;3.97;;;;;;;;;;5017111;28;20045;-83
2022/11/13 15:38:00;;;;;;;8.00;4.18;;;;;;;;;;5016490;28;20045;-82
2022/11/13 15:40:44;;;;;;;9.32;5.45;;;;;;;;;;5016476;28;20095;-84
2022/11/13 15:43:28;;;;;;;7.30;4.63;;;;;;;;;;5018084;28;20085;-84
2022/11/13 15:46:16;;;;;;;8.23;5.35;;;;;;;;;;5015896;28;20069;-84
2022/11/13 15:49:00;;;;;;;11.02;6.95;;;;;;;;;;5017349;28;20080;-83
2022/11/13 15:51:47;;;;;;;8.57;5.65;;;;;;;;;;5002605;28;20052;-84
2022/11/13 15:54:33;;;;;;;7.43;5.07;;;;;;;;;;5016716;28;20057;-83
2022/11/13 15:57:23;;;;;;;8.32;4.63;;;;;;;;;;5003612;28;20092;-83
2022/11/13 16:00:16;;;;;;;9.10;4.50;;;;;;;;;;5019848;28;20402;-83
2022/11/13 16:03:03;;;;;;;12.88;7.80;;;;;;;;;;4995194;28;20061;-82
2022/11/13 16:05:47;;;;;;;36.28;21.27;;;;;;;;;;4998507;28;20067;-83
2022/11/13 16:08:31;;;;;;;21.10;12.88;;;;;;;;;;4996021;28;20052;-83
2022/11/13 16:11:17;;;;;;;21.25;10.98;;;;;;;;;;4996566;28;20049;-83
2022/11/13 16:14:01;;;;;;;14.93;9.18;;;;;;;;;;4995540;28;20060;-83
2022/11/13 16:16:46;;;;;;;14.30;8.80;;;;;;;;;;4999180;28;20049;-83
2022/11/13 16:19:30;;;;;;;13.70;7.47;;;;;;;;;;4999541;28;20050;-82
2022/11/13 16:22:20;;;;;;;19.77;10.52;;;;;;;;;;4999007;28;20076;-84
2022/11/13 16:25:05;;;;;;;16.98;8.65;;;;;;;;;;4997598;28;20080;-83
2022/11/13 16:27:50;;;;;;;17.80;11.65;;;;;;;;;;4997793;28;20056;-84
2022/11/13 16:30:34;;;;;;;13.73;9.40;;;;;;;;;;4998330;28;20049;-83
2022/11/13 16:33:18;;;;;;;19.58;11.27;;;;;;;;;;4997913;28;20050;-84
2022/11/13 16:36:02;;;;;;;21.52;13.70;;;;;;;;;;4995122;28;20042;-84
2022/11/13 16:38:47;;;;;;;27.60;17.50;;;;;;;;;;4998196;28;20084;-84
2022/11/13 16:41:32;;;;;;;15.88;10.85;;;;;;;;;;4996990;28;20097;-84